createdAt,value
2018-05-17T00:10:08.568Z,99.90
2018-05-17T00:12:37.152Z,99.90
2018-05-17T00:15:05.115Z,99.90
2018-05-17T00:17:32.992Z,99.90
2018-05-17T00:20:01.581Z,99.90
2018-05-17T00:22:29.413Z,99.90
2018-05-17T00:24:57.223Z,99.90
2018-05-17T00:27:25.052Z,99.90
2018-05-17T00:29:52.860Z,99.90
2018-05-17T00:32:20.722Z,99.90
2018-05-17T00:34:48.575Z,99.90
2018-05-17T00:37:16.397Z,99.90
2018-05-17T00:39:44.225Z,99.90
2018-05-17T00:42:12.078Z,99.90
2018-05-17T00:44:39.930Z,99.90
2018-05-17T00:47:08.505Z,99.90
2018-05-17T00:49:36.791Z,99.90
2018-05-17T00:52:05.407Z,99.90
2018-05-17T00:54:33.225Z,99.90
2018-05-17T00:57:01.043Z,99.90
2018-05-17T00:59:28.852Z,99.90
2018-05-17T01:01:56.735Z,99.90
2018-05-17T01:04:25.352Z,99.90
2018-05-17T01:06:53.226Z,99.90
2018-05-17T01:09:21.147Z,99.90
2018-05-17T01:11:49.005Z,99.90
2018-05-17T01:14:17.789Z,99.90
2018-05-17T01:16:45.611Z,99.90
2018-05-17T01:19:14.140Z,99.90
2018-05-17T01:21:41.937Z,99.90
2018-05-17T01:24:09.760Z,99.90
2018-05-17T01:26:37.579Z,99.90
2018-05-17T01:29:07.930Z,99.90
2018-05-17T01:31:35.898Z,99.90
2018-05-17T01:34:03.707Z,99.90
2018-05-17T01:36:31.569Z,99.90
2018-05-17T01:38:59.442Z,99.90
2018-05-17T01:41:28.131Z,99.90
2018-05-17T01:43:56.855Z,99.90
2018-05-17T01:46:24.683Z,99.90
2018-05-17T01:48:53.274Z,99.90
2018-05-17T01:51:21.871Z,99.90
2018-05-17T01:53:49.692Z,99.90
2018-05-17T01:56:17.884Z,99.90
2018-05-17T01:58:46.471Z,99.90
2018-05-17T02:01:15.055Z,99.90
2018-05-17T02:03:43.703Z,99.90
2018-05-17T02:06:11.529Z,99.90
2018-05-17T02:08:39.371Z,99.90
2018-05-17T02:11:07.343Z,99.90
2018-05-17T02:13:51.111Z,99.90
2018-05-17T02:16:18.941Z,99.90
2018-05-17T02:18:46.864Z,99.90
2018-05-17T02:21:14.775Z,99.90
2018-05-17T02:23:43.385Z,99.90
2018-05-17T02:26:11.433Z,99.90
2018-05-17T02:28:40.151Z,99.90
2018-05-17T02:31:07.993Z,99.90
2018-05-17T02:33:36.656Z,99.90
2018-05-17T02:36:05.643Z,99.90
2018-05-17T02:38:33.475Z,99.90
2018-05-17T02:41:01.340Z,99.90
2018-05-17T02:43:29.214Z,99.90
2018-05-17T02:45:57.032Z,99.90
2018-05-17T02:48:24.835Z,99.90
2018-05-17T02:50:52.664Z,99.90
2018-05-17T02:53:20.566Z,99.90
2018-05-17T02:55:48.388Z,99.90
2018-05-17T03:04:00.972Z,99.90
2018-05-17T03:06:28.808Z,99.90
2018-05-17T03:08:57.408Z,99.90
2018-05-17T03:11:25.253Z,99.90
2018-05-17T03:13:53.083Z,99.90
2018-05-17T03:16:20.919Z,99.90
2018-05-17T03:18:48.748Z,99.90
2018-05-17T03:21:16.573Z,99.90
2018-05-17T03:23:44.552Z,99.90
2018-05-17T03:26:13.744Z,99.90
2018-05-17T03:32:33.195Z,99.90
2018-05-17T03:35:01.007Z,99.90
2018-05-17T03:37:28.878Z,99.90
2018-05-17T03:39:56.719Z,99.90
2018-05-17T03:42:25.796Z,99.90
2018-05-17T03:44:54.443Z,99.90
2018-05-17T03:47:23.619Z,99.90
2018-05-17T03:49:51.498Z,99.90
2018-05-17T03:52:19.321Z,99.90
2018-05-17T03:54:47.145Z,99.90
2018-05-17T03:57:14.991Z,99.90
2018-05-17T03:59:42.831Z,99.90
2018-05-17T04:02:20.316Z,99.90
2018-05-17T04:04:54.092Z,99.90
2018-05-17T04:07:21.909Z,99.90
2018-05-17T04:09:49.757Z,99.90
2018-05-17T04:12:17.656Z,99.90
2018-05-17T04:14:45.522Z,99.90
2018-05-17T04:17:13.344Z,99.90
2018-05-17T04:19:43.154Z,99.90
2018-05-17T04:22:10.986Z,99.90
2018-05-17T04:24:38.871Z,99.90
2018-05-17T04:27:07.542Z,99.90
2018-05-17T04:29:35.436Z,99.90
2018-05-17T04:34:44.059Z,99.90
2018-05-17T04:37:11.937Z,99.90
2018-05-17T04:39:40.527Z,99.90
2018-05-17T04:42:09.123Z,99.90
2018-05-17T04:44:36.992Z,99.90
2018-05-17T04:47:05.767Z,99.90
2018-05-17T04:53:20.038Z,99.90
2018-05-17T04:55:47.996Z,99.90
2018-05-17T04:58:15.905Z,99.90
2018-05-17T05:00:43.845Z,99.90
2018-05-17T05:03:11.655Z,99.90
2018-05-17T05:08:22.415Z,99.90
2018-05-17T05:10:50.254Z,99.90
2018-05-17T05:13:18.206Z,99.90
2018-05-17T05:15:46.043Z,99.90
2018-05-17T05:18:13.893Z,99.90
2018-05-17T05:20:41.704Z,99.90
2018-05-17T05:23:09.535Z,99.90
2018-05-17T05:25:37.359Z,99.90
2018-05-17T05:28:05.960Z,99.90
2018-05-17T05:30:33.846Z,99.90
2018-05-17T05:33:01.779Z,99.90
2018-05-17T05:35:30.375Z,99.90
2018-05-17T05:37:58.460Z,99.90
2018-05-17T05:40:26.371Z,99.90
2018-05-17T05:42:54.103Z,99.90
2018-05-17T05:52:27.632Z,99.90
2018-05-17T05:54:55.490Z,99.90
2018-05-17T05:57:23.277Z,99.90
2018-05-17T05:59:51.115Z,99.90
2018-05-17T06:02:19.734Z,99.90
2018-05-17T06:04:48.452Z,99.90
2018-05-17T06:07:16.336Z,99.90
2018-05-17T06:09:44.200Z,99.90
2018-05-17T06:12:12.077Z,99.90
2018-05-17T06:14:39.895Z,99.90
2018-05-17T06:17:07.736Z,99.90
2018-05-17T06:19:35.656Z,99.90
2018-05-17T06:22:03.543Z,99.90
2018-05-17T06:24:31.350Z,99.90
2018-05-17T06:26:59.188Z,99.90
2018-05-17T06:29:26.986Z,99.90
2018-05-17T06:31:54.834Z,99.90
2018-05-17T06:34:22.666Z,99.90
2018-05-17T06:36:50.494Z,99.90
2018-05-17T06:39:18.325Z,99.90
2018-05-17T06:41:46.904Z,99.90
2018-05-17T06:44:16.482Z,99.90
2018-05-17T06:46:44.272Z,99.90
2018-05-17T06:53:09.611Z,99.90
2018-05-17T07:02:47.885Z,99.90
2018-05-17T07:05:16.651Z,99.90
2018-05-17T07:07:50.058Z,99.90
2018-05-17T07:10:18.705Z,99.90
2018-05-17T07:12:46.581Z,99.90
2018-05-17T07:15:15.695Z,99.90
2018-05-17T07:17:44.295Z,99.90
2018-05-17T07:20:12.903Z,99.90
2018-05-17T07:22:40.736Z,99.90
2018-05-17T07:34:00.995Z,99.90
2018-05-17T07:36:28.848Z,99.90
2018-05-17T07:38:57.458Z,99.90
2018-05-17T07:41:25.288Z,99.90
2018-05-17T07:43:53.154Z,99.90
2018-05-17T07:46:21.019Z,99.90
2018-05-17T07:48:49.685Z,99.90
2018-05-17T07:51:32.646Z,99.90
2018-05-17T07:54:00.480Z,99.90
2018-05-17T07:56:28.303Z,99.90
2018-05-17T07:58:56.130Z,99.90
2018-05-17T08:01:23.941Z,99.90
2018-05-17T08:03:52.003Z,99.90
2018-05-17T08:06:23.303Z,99.90
2018-05-17T08:08:51.916Z,99.90
2018-05-17T08:11:19.749Z,99.90
2018-05-17T08:13:48.766Z,99.90
2018-05-17T08:16:16.637Z,99.90
2018-05-17T08:18:45.271Z,99.90
2018-05-17T08:21:13.094Z,99.90
2018-05-17T08:23:41.020Z,99.90
2018-05-17T08:33:11.838Z,99.90
2018-05-17T08:35:39.744Z,99.90
2018-05-17T08:38:07.627Z,99.90
2018-05-17T08:40:35.540Z,99.90
2018-05-17T08:43:04.129Z,99.90
2018-05-17T08:45:32.853Z,99.90
2018-05-17T08:48:00.734Z,99.90
2018-05-17T08:50:28.565Z,99.90
2018-05-17T08:52:56.384Z,99.90
2018-05-17T08:55:39.864Z,99.90
2018-05-17T08:58:07.693Z,99.90
2018-05-17T09:00:36.294Z,99.90
2018-05-17T09:03:04.127Z,99.90
2018-05-17T09:05:31.960Z,99.90
2018-05-17T09:07:59.770Z,99.90
2018-05-17T09:10:27.583Z,99.90
2018-05-17T09:12:55.427Z,99.90
2018-05-17T09:22:28.651Z,99.90
2018-05-17T09:24:57.419Z,99.90
2018-05-17T09:27:25.234Z,99.90
2018-05-17T09:29:53.120Z,99.90
2018-05-17T09:32:21.007Z,99.90
2018-05-17T09:34:48.811Z,99.90
2018-05-17T09:40:00.438Z,99.90
2018-05-17T09:42:28.257Z,99.90
2018-05-17T09:44:57.015Z,99.90
2018-05-17T09:47:25.659Z,99.90
2018-05-17T09:49:54.303Z,99.90
2018-05-17T09:52:22.122Z,99.90
2018-05-17T10:06:42.275Z,99.90
2018-05-17T10:09:10.160Z,99.90
2018-05-17T10:11:37.998Z,99.90
2018-05-17T10:17:53.753Z,99.90
2018-05-17T10:20:21.576Z,99.90
2018-05-17T10:22:49.463Z,99.90
2018-05-17T10:25:17.347Z,99.90
2018-05-17T10:30:27.365Z,99.90
2018-05-17T10:32:55.222Z,99.90
2018-05-17T10:35:23.203Z,99.90
2018-05-17T10:37:52.239Z,99.90
2018-05-17T10:40:20.186Z,99.90
2018-05-17T10:42:48.834Z,99.90
2018-05-17T10:45:16.806Z,99.90
2018-05-17T10:47:44.745Z,99.90
2018-05-17T10:50:12.569Z,99.90
2018-05-17T10:52:41.283Z,99.90
2018-05-17T10:55:09.101Z,99.90
2018-05-17T10:57:36.950Z,99.90
2018-05-17T11:00:04.803Z,99.90
2018-05-17T11:02:32.702Z,99.90
2018-05-17T11:05:00.459Z,99.90
2018-05-17T11:07:28.279Z,99.90
2018-05-17T11:09:56.151Z,99.90
2018-05-17T11:12:23.983Z,99.90
2018-05-17T11:14:51.829Z,99.90
2018-05-17T11:17:20.467Z,99.90
2018-05-17T11:19:48.351Z,99.90
2018-05-17T11:22:16.239Z,99.90
2018-05-17T11:24:44.074Z,99.90
2018-05-17T11:29:54.335Z,99.90
2018-05-17T11:32:22.199Z,99.90
2018-05-17T11:34:50.125Z,99.90
2018-05-17T11:37:18.011Z,99.90
2018-05-17T11:39:46.591Z,99.90
2018-05-17T11:42:14.402Z,99.90
2018-05-17T11:44:42.312Z,99.90
2018-05-17T11:47:10.989Z,99.90
2018-05-17T11:49:38.814Z,99.90
2018-05-17T11:52:06.870Z,99.90
2018-05-17T11:54:50.600Z,99.90
2018-05-17T11:57:19.264Z,99.90
2018-05-17T11:59:47.863Z,99.90
2018-05-17T12:02:16.447Z,99.90
2018-05-17T12:04:45.099Z,99.90
2018-05-17T12:07:12.925Z,99.90
2018-05-17T12:09:40.856Z,99.90
2018-05-17T12:12:08.817Z,99.90
2018-05-17T12:14:36.710Z,99.90
2018-05-17T12:17:04.609Z,99.90
2018-05-17T12:19:32.444Z,99.90
2018-05-17T12:22:01.044Z,99.90
2018-05-17T12:24:28.886Z,99.90
2018-05-17T12:26:56.794Z,99.90
2018-05-17T12:29:24.682Z,99.90
2018-05-17T12:31:52.669Z,99.90
2018-05-17T12:34:20.504Z,99.90
2018-05-17T12:36:48.315Z,99.90
2018-05-17T12:39:16.960Z,99.90
2018-05-17T12:41:44.943Z,99.90
2018-05-17T12:44:12.767Z,99.90
2018-05-17T12:46:40.633Z,99.90
2018-05-17T12:49:08.739Z,99.90
2018-05-17T12:51:36.603Z,99.90
2018-05-17T12:54:04.544Z,99.90
2018-05-17T12:56:32.412Z,99.90
2018-05-17T12:59:00.331Z,99.90
2018-05-17T13:01:28.158Z,99.90
2018-05-17T13:03:56.003Z,99.90
2018-05-17T13:06:23.928Z,99.90
2018-05-17T13:08:51.751Z,99.90
2018-05-17T13:11:20.199Z,99.90
2018-05-17T13:13:49.706Z,99.90
2018-05-17T13:16:18.291Z,99.90
2018-05-17T13:18:47.483Z,99.90
2018-05-17T13:21:16.208Z,99.90
2018-05-17T13:23:44.054Z,99.90
2018-05-17T13:26:11.951Z,99.90
2018-05-17T13:28:39.794Z,99.90
2018-05-17T13:31:08.420Z,99.90
2018-05-17T13:33:36.271Z,99.90
2018-05-17T13:36:04.240Z,99.20
2018-05-17T13:38:32.107Z,99.00
2018-05-17T13:40:59.995Z,99.90
2018-05-17T13:43:28.331Z,98.10
2018-05-17T13:49:07.682Z,98.70
2018-05-17T13:51:36.321Z,98.10
2018-05-17T13:54:04.272Z,98.10
2018-05-17T13:56:32.142Z,98.20
2018-05-17T13:59:00.037Z,98.90
2018-05-17T14:01:27.793Z,99.10
2018-05-17T14:03:55.679Z,97.50
2018-05-17T14:06:24.356Z,98.70
2018-05-17T14:08:52.980Z,97.20
2018-05-17T14:14:09.495Z,97.30
2018-05-17T14:16:37.328Z,97.30
2018-05-17T14:19:05.140Z,97.30
2018-05-17T14:21:32.987Z,98.60
2018-05-17T14:24:00.848Z,99.00
2018-05-17T14:26:28.684Z,97.10
2018-05-17T14:28:56.502Z,98.70
2018-05-17T14:31:24.324Z,98.00
2018-05-17T14:33:52.917Z,98.30
2018-05-17T14:36:21.589Z,99.10
2018-05-17T14:38:49.428Z,99.00
2018-05-17T14:41:17.305Z,99.80
2018-05-17T14:43:45.152Z,99.90
2018-05-17T14:46:13.050Z,99.30
2018-05-17T14:48:40.856Z,99.50
2018-05-17T14:58:12.887Z,98.60
2018-05-17T15:00:40.732Z,97.10
2018-05-17T15:03:08.547Z,96.00
2018-05-17T15:05:36.371Z,94.80
2018-05-17T15:08:04.213Z,94.40
2018-05-17T15:10:33.155Z,95.20
2018-05-17T15:13:01.023Z,95.20
2018-05-17T15:15:29.228Z,95.30
2018-05-17T15:17:57.051Z,95.90
2018-05-17T15:20:25.026Z,97.30
2018-05-17T15:22:52.931Z,96.80
2018-05-17T15:25:20.710Z,96.00
2018-05-17T15:27:49.305Z,95.90
2018-05-17T15:30:17.107Z,95.80
2018-05-17T15:32:45.064Z,95.70
2018-05-17T15:35:12.956Z,94.90
2018-05-17T15:37:42.029Z,93.80
2018-05-17T15:40:09.904Z,93.10
2018-05-17T15:42:37.771Z,91.70
2018-05-17T15:45:05.629Z,92.10
2018-05-17T15:47:33.472Z,91.70
2018-05-17T15:50:01.302Z,91.30
2018-05-17T15:52:29.189Z,91.20
2018-05-17T15:54:57.789Z,92.20
2018-05-17T15:57:26.398Z,92.40
2018-05-17T15:59:54.258Z,92.40
2018-05-17T16:02:22.126Z,92.90
2018-05-17T16:04:50.125Z,92.90
2018-05-17T16:07:18.030Z,94.10
2018-05-17T16:09:46.687Z,94.20
2018-05-17T16:12:14.535Z,94.30
2018-05-17T16:14:42.420Z,93.60
2018-05-17T16:17:10.204Z,93.30
2018-05-17T16:19:38.862Z,93.50
2018-05-17T16:22:06.703Z,93.40
2018-05-17T16:24:34.550Z,94.90
2018-05-17T16:27:03.164Z,95.50
2018-05-17T16:29:30.981Z,95.50
2018-05-17T16:34:42.838Z,97.10
2018-05-17T16:42:54.282Z,98.60
2018-05-17T16:45:24.721Z,98.60
2018-05-17T16:47:52.677Z,98.60
2018-05-17T16:50:20.502Z,99.00
2018-05-17T16:52:48.397Z,99.50
2018-05-17T16:55:16.170Z,99.80
2018-05-17T16:57:44.068Z,99.50
2018-05-17T17:00:12.652Z,99.90
2018-05-17T17:02:40.490Z,99.90
2018-05-17T17:05:08.593Z,99.90
2018-05-17T17:07:36.276Z,99.90
2018-05-17T17:10:04.101Z,99.80
2018-05-17T17:12:31.935Z,99.90
2018-05-17T17:14:59.920Z,99.40
2018-05-17T17:17:27.889Z,99.00
2018-05-17T17:19:55.772Z,99.70
2018-05-17T17:22:23.727Z,99.40
2018-05-17T17:24:51.683Z,99.70
2018-05-17T17:27:19.521Z,99.90
2018-05-17T17:29:47.423Z,99.70
2018-05-17T17:32:15.255Z,99.90
2018-05-17T17:34:43.096Z,99.90
2018-05-17T17:39:53.671Z,99.90
2018-05-17T17:45:04.427Z,99.90
2018-05-17T17:47:32.348Z,99.90
2018-05-17T17:50:00.344Z,99.90
2018-05-17T17:58:46.688Z,99.90
2018-05-17T18:01:15.330Z,99.90
2018-05-17T18:03:43.927Z,99.90
2018-05-17T18:06:11.777Z,99.90
2018-05-17T18:12:25.945Z,99.90
2018-05-17T18:14:53.799Z,99.90
2018-05-17T18:17:21.627Z,99.90
2018-05-17T18:19:49.603Z,99.90
2018-05-17T18:22:17.767Z,99.90
2018-05-17T18:33:57.949Z,99.90
2018-05-17T18:36:25.878Z,99.90
2018-05-17T18:38:53.705Z,99.90
2018-05-17T18:41:21.540Z,99.90
2018-05-17T18:43:50.124Z,99.90
2018-05-17T18:46:18.815Z,99.90
2018-05-17T18:48:47.500Z,99.90
2018-05-17T18:51:16.106Z,99.90
2018-05-17T18:53:43.951Z,99.90
2018-05-17T18:56:11.864Z,99.90
2018-05-17T18:58:39.668Z,99.90
2018-05-17T19:01:08.453Z,99.90
2018-05-17T19:03:36.324Z,99.90
2018-05-17T19:06:04.131Z,99.90
2018-05-17T19:08:31.963Z,99.90
2018-05-17T19:11:01.094Z,99.90
2018-05-17T19:13:28.985Z,99.90
2018-05-17T19:15:56.820Z,99.90
2018-05-17T19:18:24.693Z,99.90
2018-05-17T19:20:52.522Z,99.90
2018-05-17T19:23:21.148Z,99.90
2018-05-17T19:25:49.097Z,99.90
2018-05-17T19:28:16.920Z,99.90
2018-05-17T19:30:46.348Z,99.90
2018-05-17T19:33:14.652Z,99.90
2018-05-17T19:42:45.703Z,99.90
2018-05-17T19:45:14.545Z,99.90
2018-05-17T19:47:43.090Z,99.90
2018-05-17T19:53:47.603Z,99.90
2018-05-17T19:56:15.545Z,99.90
2018-05-17T19:58:43.398Z,99.90
2018-05-17T20:01:11.237Z,99.90
2018-05-17T20:03:39.055Z,99.90
2018-05-17T20:06:06.923Z,99.90
2018-05-17T20:08:34.768Z,99.90
2018-05-17T20:11:02.711Z,99.90
2018-05-17T20:13:31.328Z,99.90
2018-05-17T20:15:59.172Z,99.90
2018-05-17T20:18:27.118Z,99.90
2018-05-17T20:20:55.823Z,99.90
2018-05-17T20:23:23.689Z,99.90
2018-05-17T20:25:51.528Z,99.90
2018-05-17T20:28:20.230Z,99.90
2018-05-17T20:30:48.034Z,99.90
2018-05-17T20:33:15.864Z,99.90
2018-05-17T20:35:44.459Z,99.90
2018-05-17T20:38:13.133Z,99.90
2018-05-17T20:40:41.732Z,99.90
2018-05-17T20:43:09.604Z,99.90
2018-05-17T20:45:37.465Z,99.90
2018-05-17T20:48:05.344Z,99.90
2018-05-17T20:50:33.171Z,99.90
2018-05-17T20:53:01.135Z,99.90
2018-05-17T20:55:28.968Z,99.90
2018-05-17T20:57:56.804Z,99.90
2018-05-17T21:07:37.323Z,99.90
2018-05-17T21:10:05.262Z,99.90
2018-05-17T21:12:33.959Z,99.90
2018-05-17T21:15:01.793Z,99.90
2018-05-17T21:17:29.616Z,99.90
2018-05-17T21:29:05.096Z,99.90
2018-05-17T21:31:33.723Z,99.90
2018-05-17T21:34:01.597Z,99.90
2018-05-17T21:36:30.437Z,99.90
2018-05-17T21:38:59.079Z,99.90
2018-05-17T21:41:26.964Z,99.90
2018-05-17T21:47:36.896Z,99.90
2018-05-17T21:50:04.837Z,99.90
2018-05-17T21:52:33.023Z,99.90
2018-05-17T21:55:00.859Z,99.90
2018-05-17T21:57:28.719Z,99.90
2018-05-17T22:09:01.121Z,99.90
2018-05-17T22:11:28.974Z,99.90
2018-05-17T22:13:58.229Z,99.90
2018-05-17T22:16:26.050Z,99.90
2018-05-17T22:18:53.861Z,99.90
2018-05-17T22:21:22.451Z,99.90
2018-05-17T22:23:51.538Z,99.90
2018-05-17T22:26:19.434Z,99.90
2018-05-17T22:28:47.310Z,99.90
2018-05-17T22:31:15.203Z,99.90
2018-05-17T22:33:43.094Z,99.90
2018-05-17T22:39:04.836Z,99.90
2018-05-17T22:41:32.663Z,99.90
2018-05-17T22:44:00.754Z,99.90
2018-05-17T22:52:38.507Z,99.90
2018-05-17T23:04:02.475Z,99.90
2018-05-17T23:06:30.317Z,99.90
2018-05-17T23:08:58.925Z,99.90
2018-05-17T23:11:27.508Z,99.90
2018-05-17T23:13:56.095Z,99.90
2018-05-17T23:16:25.056Z,99.90
2018-05-17T23:18:53.712Z,99.90
2018-05-17T23:21:21.628Z,99.90
2018-05-17T23:23:49.486Z,99.90
2018-05-17T23:33:17.208Z,99.90
2018-05-17T23:35:45.051Z,99.90
2018-05-17T23:38:12.925Z,99.90
2018-05-17T23:40:55.623Z,99.90
2018-05-17T23:43:24.228Z,99.90
2018-05-17T23:45:52.868Z,99.90
2018-05-17T23:48:20.723Z,99.90
2018-05-17T23:50:48.540Z,99.90
2018-05-17T23:53:16.395Z,99.90
2018-05-17T23:55:44.226Z,99.90
2018-05-17T23:58:12.049Z,99.90
